East Orwell, Ohio
Current Conditions -  °F | °C
As of 10:53 PM on Wednesday 28 Jan 2015 (Local Time) from KHZY Reporting Station
Clear Clear  
Wind Chill:   Ceiling: Unl
Heat Index: 20°   Visibility: 10mi
Dew Point:   Wind: 13mph
Humidity: 50%   Direction: 160°SSE
Pressure: 30.24"   Gusts: NA
Location:  41.5284°N, 80.8237°W
Report Text: KHZY 290353Z AUTO 16011KT 10SM CLR M07/M16 A3024 RMK AO2 SLP255 T10671156
Loading
Personal Weather Stations






























Interactive Weather Map New forecast layout! Learn more

10-Day Weather Forecast

Advertisements
Track Severe Weather on mobile